createdAt,value
2022-07-27T00:00:14.715Z,99042.59
2022-07-27T00:02:16.583Z,99049.72
2022-07-27T00:04:21.461Z,99053.91
2022-07-27T00:06:23.455Z,99051.63
2022-07-27T00:08:25.374Z,99057.63
2022-07-27T00:10:27.496Z,99064.22
2022-07-27T00:12:29.214Z,99052.00
2022-07-27T00:14:31.185Z,99066.72
2022-07-27T00:16:33.139Z,99064.34
2022-07-27T00:18:35.069Z,99072.66
2022-07-27T00:20:38.034Z,99075.25
2022-07-27T00:22:39.882Z,99064.19
2022-07-27T00:24:42.266Z,99068.66
2022-07-27T00:26:44.162Z,99084.38
2022-07-27T00:28:46.179Z,99081.63
2022-07-27T00:30:48.387Z,99093.56
2022-07-27T00:32:50.531Z,99091.66
2022-07-27T00:34:52.315Z,99081.97
2022-07-27T00:36:54.200Z,99091.31
2022-07-27T00:38:56.054Z,99095.78
2022-07-27T00:40:58.250Z,99091.16
2022-07-27T00:43:00.102Z,99083.97
2022-07-27T00:45:02.451Z,99091.38
2022-07-27T00:47:04.611Z,99087.25
2022-07-27T00:49:06.837Z,99095.53
2022-07-27T00:51:08.942Z,99097.28
2022-07-27T00:53:10.942Z,99106.09
2022-07-27T00:55:12.809Z,99104.03
2022-07-27T00:57:16.579Z,99109.00
2022-07-27T00:59:20.343Z,99110.00
2022-07-27T01:01:22.241Z,99112.09
2022-07-27T01:03:29.837Z,99120.38
2022-07-27T01:05:36.485Z,99122.97
2022-07-27T01:07:40.282Z,99122.31
2022-07-27T01:09:58.469Z,99121.66
2022-07-27T01:12:00.837Z,99126.16
2022-07-27T01:14:02.675Z,99117.91
2022-07-27T01:16:08.530Z,99117.09
2022-07-27T01:18:27.966Z,99116.25
2022-07-27T01:20:29.895Z,99126.56
2022-07-27T01:22:31.977Z,99123.81
2022-07-27T01:24:37.157Z,99123.63
2022-07-27T01:26:39.217Z,99130.03
2022-07-27T01:28:43.710Z,99131.25
2022-07-27T01:30:45.564Z,99134.84
2022-07-27T01:32:47.371Z,99138.13
2022-07-27T01:34:49.415Z,99140.88
2022-07-27T01:36:51.146Z,99140.88
2022-07-27T01:38:53.053Z,99132.94
2022-07-27T01:40:55.538Z,99145.53
2022-07-27T01:42:57.505Z,99134.50
2022-07-27T01:44:59.311Z,99141.75
2022-07-27T01:47:01.196Z,99145.19
2022-07-27T01:49:03.549Z,99155.88
2022-07-27T01:51:05.460Z,99153.81
2022-07-27T01:53:09.208Z,99149.50
2022-07-27T01:55:12.739Z,99145.72
2022-07-27T01:57:14.933Z,99146.22
2022-07-27T01:59:17.190Z,99141.22
2022-07-27T02:01:19.363Z,99129.00
2022-07-27T02:03:21.357Z,99141.56
2022-07-27T02:05:23.218Z,99139.50
2022-07-27T02:07:25.147Z,99138.09
2022-07-27T02:09:27.013Z,99140.00
2022-07-27T02:11:47.745Z,99153.22
2022-07-27T02:13:50.277Z,99147.38
2022-07-27T02:15:54.840Z,99149.78
2022-07-27T02:17:56.753Z,99152.69
2022-07-27T02:19:59.098Z,99147.88
2022-07-27T02:22:00.929Z,99149.78
2022-07-27T02:24:02.647Z,99154.25
2022-07-27T02:26:06.847Z,99149.78
2022-07-27T02:28:09.183Z,99144.91
2022-07-27T02:30:12.823Z,99141.66
2022-07-27T02:32:14.611Z,99148.22
2022-07-27T02:34:16.401Z,99149.56
2022-07-27T02:36:18.238Z,99144.56
2022-07-27T02:38:20.141Z,99144.75
2022-07-27T02:40:21.979Z,99154.19
2022-07-27T02:42:23.913Z,99154.84
2022-07-27T02:44:25.718Z,99158.63
2022-07-27T02:46:27.656Z,99156.88
2022-07-27T02:48:31.485Z,99152.22
2022-07-27T02:50:33.261Z,99151.69
2022-07-27T02:52:36.806Z,99158.06
2022-07-27T02:54:39.160Z,99156.88
2022-07-27T02:56:40.972Z,99153.97
2022-07-27T02:58:42.755Z,99165.81
2022-07-27T03:00:44.720Z,99174.56
2022-07-27T03:02:50.088Z,99173.28
2022-07-27T03:04:51.892Z,99180.84
2022-07-27T03:06:53.944Z,99174.81
2022-07-27T03:08:55.903Z,99180.31
2022-07-27T03:10:57.629Z,99179.13
2022-07-27T03:12:59.791Z,99181.88
2022-07-27T03:15:01.926Z,99190.13
2022-07-27T03:17:03.681Z,99194.75
2022-07-27T03:19:06.322Z,99203.34
2022-07-27T03:21:08.440Z,99202.81
2022-07-27T03:23:10.223Z,99199.34
2022-07-27T03:25:12.340Z,99199.34
2022-07-27T03:27:14.302Z,99206.75
2022-07-27T03:29:16.289Z,99205.88
2022-07-27T03:31:18.249Z,99218.09
2022-07-27T03:33:20.301Z,99224.22
2022-07-27T03:35:22.216Z,99215.25
2022-07-27T03:37:24.012Z,99217.47
2022-07-27T03:39:25.788Z,99218.81
2022-07-27T03:41:27.574Z,99217.81
2022-07-27T03:43:29.912Z,99220.56
2022-07-27T03:45:31.694Z,99218.53
2022-07-27T03:47:33.481Z,99214.34
2022-07-27T03:49:35.258Z,99220.50
2022-07-27T03:51:37.173Z,99216.34
2022-07-27T03:53:39.423Z,99209.28
2022-07-27T03:55:41.262Z,99217.69
2022-07-27T03:57:43.077Z,99220.03
2022-07-27T03:59:44.968Z,99220.75
2022-07-27T04:01:47.587Z,99222.13
2022-07-27T04:03:49.962Z,99211.97
2022-07-27T04:05:52.063Z,99212.97
2022-07-27T04:07:54.751Z,99212.31
2022-07-27T04:09:57.020Z,99204.91
2022-07-27T04:11:59.638Z,99214.00
2022-07-27T04:14:01.509Z,99212.81
2022-07-27T04:16:03.508Z,99221.78
2022-07-27T04:18:05.523Z,99222.63
2022-07-27T04:20:08.150Z,99225.38
2022-07-27T04:22:10.367Z,99230.75
2022-07-27T04:24:12.238Z,99230.34
2022-07-27T04:26:14.173Z,99238.75
2022-07-27T04:28:16.186Z,99239.06
2022-07-27T04:30:18.068Z,99232.41
2022-07-27T04:32:20.184Z,99239.47
2022-07-27T04:34:21.946Z,99243.94
2022-07-27T04:36:23.764Z,99237.56
2022-07-27T04:38:25.615Z,99240.19
2022-07-27T04:40:31.854Z,99241.19
2022-07-27T04:42:33.740Z,99246.69
2022-07-27T04:44:35.497Z,99242.94
2022-07-27T04:46:37.514Z,99258.06
2022-07-27T04:48:39.614Z,99253.97
2022-07-27T04:50:45.234Z,99261.38
2022-07-27T04:52:47.154Z,99255.88
2022-07-27T04:54:53.266Z,99247.06
2022-07-27T04:56:55.069Z,99245.03
2022-07-27T04:58:56.857Z,99255.22
2022-07-27T05:00:58.680Z,99254.41
2022-07-27T05:03:00.830Z,99247.59
2022-07-27T05:05:02.617Z,99260.81
2022-07-27T05:07:04.482Z,99257.69
2022-07-27T05:09:06.473Z,99260.03
2022-07-27T05:11:08.313Z,99265.22
2022-07-27T05:13:10.503Z,99264.72
2022-07-27T05:15:12.318Z,99261.53
2022-07-27T05:17:14.121Z,99264.38
2022-07-27T05:19:16.167Z,99271.25
2022-07-27T05:21:17.982Z,99274.38
2022-07-27T05:23:20.450Z,99273.75
2022-07-27T05:25:25.502Z,99268.78
2022-07-27T05:27:27.681Z,99266.25
2022-07-27T05:29:29.508Z,99266.09
2022-07-27T05:31:31.461Z,99264.91
2022-07-27T05:33:33.334Z,99270.28
2022-07-27T05:35:35.145Z,99272.53
2022-07-27T05:37:37.110Z,99282.69
2022-07-27T05:39:42.213Z,99275.34
2022-07-27T05:41:44.051Z,99286.72
2022-07-27T05:43:45.857Z,99286.22
2022-07-27T05:45:47.841Z,99276.91
2022-07-27T05:47:50.070Z,99274.72
2022-07-27T05:49:52.734Z,99279.72
2022-07-27T05:51:54.561Z,99273.69
2022-07-27T05:53:56.301Z,99274.94
2022-07-27T05:55:59.715Z,99282.16
2022-07-27T05:58:01.655Z,99279.75
2022-07-27T06:00:08.806Z,99282.22
2022-07-27T06:02:16.100Z,99287.88
2022-07-27T06:04:17.897Z,99298.06
2022-07-27T06:06:38.361Z,99296.69
2022-07-27T06:08:40.700Z,99299.28
2022-07-27T06:10:42.786Z,99298.41
2022-07-27T06:12:45.641Z,99297.75
2022-07-27T06:14:51.191Z,99300.84
2022-07-27T06:16:53.388Z,99292.91
2022-07-27T06:18:55.214Z,99296.16
2022-07-27T06:20:56.958Z,99299.78
2022-07-27T06:23:00.865Z,99295.13
2022-07-27T06:25:02.645Z,99304.25
2022-07-27T06:27:04.591Z,99301.47
2022-07-27T06:29:09.763Z,99306.69
2022-07-27T06:31:13.234Z,99299.06
2022-07-27T06:33:16.162Z,99296.84
2022-07-27T06:35:19.216Z,99299.06
2022-07-27T06:37:21.198Z,99288.88
2022-07-27T06:39:22.985Z,99298.69
2022-07-27T06:41:24.703Z,99297.06
2022-07-27T06:43:30.797Z,99302.41
2022-07-27T06:45:32.809Z,99299.28
2022-07-27T06:47:34.711Z,99298.25
2022-07-27T06:49:36.619Z,99306.66
2022-07-27T06:51:38.763Z,99316.09
2022-07-27T06:53:40.981Z,99309.78
2022-07-27T06:55:42.803Z,99307.16
2022-07-27T06:57:46.365Z,99303.59
2022-07-27T06:59:48.493Z,99296.84
2022-07-27T07:01:50.634Z,99288.66
2022-07-27T07:03:52.444Z,99292.09
2022-07-27T07:05:54.462Z,99286.13
2022-07-27T07:07:56.356Z,99293.38
2022-07-27T07:09:58.316Z,99291.09
2022-07-27T07:12:00.069Z,99290.84
2022-07-27T07:14:01.950Z,99296.31
2022-07-27T07:16:04.010Z,99293.91
2022-07-27T07:18:07.161Z,99295.03
2022-07-27T07:20:09.446Z,99301.06
2022-07-27T07:22:11.648Z,99297.75
2022-07-27T07:24:13.970Z,99293.22
2022-07-27T07:26:15.843Z,99297.63
2022-07-27T07:28:22.081Z,99298.78
2022-07-27T07:30:24.030Z,99304.59
2022-07-27T07:32:32.993Z,99299.75
2022-07-27T07:34:35.347Z,99299.28
2022-07-27T07:36:37.129Z,99301.66
2022-07-27T07:38:38.986Z,99299.91
2022-07-27T07:40:44.058Z,99301.94
2022-07-27T07:42:55.591Z,99304.50
2022-07-27T07:44:57.567Z,99301.84
2022-07-27T07:47:00.479Z,99303.09
2022-07-27T07:49:02.644Z,99297.47
2022-07-27T07:51:04.443Z,99297.38
2022-07-27T07:53:06.130Z,99296.19
2022-07-27T07:55:08.557Z,99292.59
2022-07-27T07:57:10.480Z,99288.47
2022-07-27T07:59:12.698Z,99302.91
2022-07-27T08:01:14.884Z,99302.44
2022-07-27T08:03:17.838Z,99309.63
2022-07-27T08:05:20.253Z,99305.72
2022-07-27T08:07:22.193Z,99304.47
2022-07-27T08:09:26.885Z,99314.50
2022-07-27T08:11:28.702Z,99307.44
2022-07-27T08:13:30.513Z,99312.00
2022-07-27T08:15:35.973Z,99315.19
2022-07-27T08:17:38.186Z,99316.31
2022-07-27T08:19:40.480Z,99315.25
2022-07-27T08:21:42.294Z,99300.66
2022-07-27T08:23:44.117Z,99317.47
2022-07-27T08:25:46.313Z,99315.16
2022-07-27T08:27:48.057Z,99319.44
2022-07-27T08:29:51.956Z,99323.28
2022-07-27T08:31:54.046Z,99332.38
2022-07-27T08:33:58.130Z,99323.88
2022-07-27T08:35:59.948Z,99333.63
2022-07-27T08:38:04.146Z,99322.53
2022-07-27T08:40:38.903Z,99330.84
2022-07-27T08:42:28.388Z,99325.75
2022-07-27T08:44:31.907Z,99323.94
2022-07-27T08:46:36.025Z,99331.47
2022-07-27T08:48:40.359Z,99321.84
2022-07-27T08:50:42.912Z,99335.63
2022-07-27T08:52:44.914Z,99324.72
2022-07-27T08:54:47.616Z,99321.31
2022-07-27T08:56:49.454Z,99324.34
2022-07-27T08:58:52.021Z,99319.69
2022-07-27T09:00:54.590Z,99320.31
2022-07-27T09:02:57.685Z,99320.13
2022-07-27T09:04:59.783Z,99315.59
2022-07-27T09:07:02.010Z,99325.28
2022-07-27T09:09:04.475Z,99330.50
2022-07-27T09:11:17.983Z,99331.59
2022-07-27T09:13:27.139Z,99332.69
2022-07-27T09:15:34.523Z,99338.09
2022-07-27T09:17:48.362Z,99328.03
2022-07-27T09:19:54.959Z,99324.81
2022-07-27T09:21:56.749Z,99327.25
2022-07-27T09:24:29.690Z,99334.34
2022-07-27T09:26:36.371Z,99326.50
2022-07-27T09:28:38.739Z,99330.53
2022-07-27T09:30:43.811Z,99323.59
2022-07-27T09:32:58.316Z,99325.91
2022-07-27T09:35:14.943Z,99320.34
2022-07-27T09:37:25.321Z,99316.63
2022-07-27T09:39:28.314Z,99318.75
2022-07-27T09:41:45.768Z,99319.91
2022-07-27T09:46:41.165Z,99317.59
2022-07-27T09:48:43.235Z,99328.16
2022-07-27T09:51:02.493Z,99324.97
2022-07-27T09:53:41.295Z,99328.22
2022-07-27T09:55:38.413Z,99330.34
2022-07-27T09:57:58.950Z,99331.50
2022-07-27T10:00:16.480Z,99327.50
2022-07-27T10:02:18.292Z,99322.00
2022-07-27T10:04:20.292Z,99313.28
2022-07-27T10:06:25.162Z,99320.72
2022-07-27T10:08:28.016Z,99320.56
2022-07-27T10:10:29.874Z,99310.06
2022-07-27T10:12:32.577Z,99314.97
2022-07-27T10:14:35.302Z,99309.66
2022-07-27T10:16:40.052Z,99308.19
2022-07-27T10:19:00.433Z,99306.72
2022-07-27T10:21:09.706Z,99300.31
2022-07-27T10:23:27.329Z,99303.69
2022-07-27T10:25:37.296Z,99299.69
2022-07-27T10:27:40.071Z,99298.44
2022-07-27T10:29:41.965Z,99294.22
2022-07-27T10:31:56.165Z,99298.34
2022-07-27T10:34:00.776Z,99301.16
2022-07-27T10:36:04.220Z,99293.28
2022-07-27T10:38:15.637Z,99290.13
2022-07-27T10:40:34.749Z,99279.66
2022-07-27T10:42:36.619Z,99285.63
2022-07-27T10:44:56.259Z,99274.53
2022-07-27T10:47:01.817Z,99274.78
2022-07-27T10:49:19.806Z,99277.31
2022-07-27T10:51:35.182Z,99282.91
2022-07-27T10:53:55.372Z,99278.16
2022-07-27T10:56:01.685Z,99280.34
2022-07-27T10:58:03.389Z,99271.13
2022-07-27T11:00:13.641Z,99275.81
2022-07-27T11:02:38.055Z,99267.72
2022-07-27T11:04:45.691Z,99273.47
2022-07-27T11:07:22.956Z,99273.25
2022-07-27T11:11:34.646Z,99270.44
2022-07-27T11:13:38.795Z,99259.72
2022-07-27T11:15:55.784Z,99266.19
2022-07-27T11:18:04.938Z,99271.97
2022-07-27T11:20:07.691Z,99264.50
2022-07-27T11:22:28.357Z,99267.91
2022-07-27T11:24:30.796Z,99265.34
2022-07-27T11:26:46.989Z,99249.91
2022-07-27T11:28:48.900Z,99258.28
2022-07-27T11:30:51.111Z,99253.31
2022-07-27T11:32:54.219Z,99258.69
2022-07-27T11:34:56.012Z,99248.63
2022-07-27T11:37:01.973Z,99246.50
2022-07-27T11:39:06.130Z,99250.16
2022-07-27T11:41:16.913Z,99248.22
2022-07-27T11:43:33.818Z,99235.13
2022-07-27T11:45:39.821Z,99250.34
2022-07-27T11:47:41.641Z,99249.91
2022-07-27T11:49:43.855Z,99250.53
2022-07-27T11:51:48.242Z,99246.47
2022-07-27T11:53:59.743Z,99255.69
2022-07-27T11:56:04.820Z,99246.25
2022-07-27T11:58:06.600Z,99245.16
2022-07-27T12:00:08.976Z,99252.25
2022-07-27T12:02:20.743Z,99240.47
2022-07-27T12:04:31.241Z,99244.34
2022-07-27T12:06:34.482Z,99247.28
2022-07-27T12:08:36.318Z,99241.06
2022-07-27T12:10:38.121Z,99238.50
2022-07-27T12:12:39.893Z,99245.16
2022-07-27T12:14:46.267Z,99236.59
2022-07-27T12:16:48.231Z,99238.69
2022-07-27T12:18:50.138Z,99242.94
2022-07-27T12:20:52.116Z,99233.09
2022-07-27T12:22:54.839Z,99233.28
2022-07-27T12:24:58.827Z,99230.69
2022-07-27T12:27:14.288Z,99231.94
2022-07-27T12:29:17.997Z,99225.31
2022-07-27T12:31:19.919Z,99224.88
2022-07-27T12:33:32.928Z,99213.75
2022-07-27T12:35:46.557Z,99219.34
2022-07-27T12:37:55.659Z,99225.97
2022-07-27T12:39:58.306Z,99222.34
2022-07-27T12:42:04.827Z,99225.38
2022-07-27T12:44:18.445Z,99221.69
2022-07-27T12:46:20.332Z,99216.03
2022-07-27T12:48:25.611Z,99219.25
2022-07-27T12:50:28.843Z,99214.53
2022-07-27T12:52:31.317Z,99216.72
2022-07-27T12:54:34.187Z,99209.84
2022-07-27T12:56:35.979Z,99205.78
2022-07-27T12:58:37.966Z,99197.81
2022-07-27T13:00:40.156Z,99196.09
2022-07-27T13:02:42.634Z,99186.38
2022-07-27T13:04:44.572Z,99185.03
2022-07-27T13:06:47.494Z,99177.25
2022-07-27T13:08:49.274Z,99184.25
2022-07-27T13:10:52.415Z,99177.16
2022-07-27T13:12:54.582Z,99172.06
2022-07-27T13:14:56.427Z,99176.16
2022-07-27T13:16:58.270Z,99169.28
2022-07-27T13:19:00.018Z,99181.81
2022-07-27T13:21:02.135Z,99179.00
2022-07-27T13:23:07.879Z,99186.13
2022-07-27T13:25:15.661Z,99183.13
2022-07-27T13:27:18.517Z,99178.56
2022-07-27T13:29:20.323Z,99181.09
2022-07-27T13:31:22.358Z,99176.53
2022-07-27T13:33:24.738Z,99180.78
2022-07-27T13:35:27.257Z,99171.34
2022-07-27T13:37:29.124Z,99172.84
2022-07-27T13:39:30.960Z,99169.16
2022-07-27T13:41:37.258Z,99164.69
2022-07-27T13:43:39.155Z,99165.03
2022-07-27T13:45:43.145Z,99173.41
2022-07-27T13:47:45.355Z,99167.34
2022-07-27T13:49:47.397Z,99172.94
2022-07-27T13:51:49.687Z,99168.03
2022-07-27T13:53:51.555Z,99179.47
2022-07-27T13:55:53.294Z,99176.47
2022-07-27T13:57:55.144Z,99171.97
2022-07-27T13:59:59.799Z,99169.41
2022-07-27T14:02:01.997Z,99162.38
2022-07-27T14:04:05.780Z,99158.13
2022-07-27T14:06:08.480Z,99167.28
2022-07-27T14:08:10.985Z,99155.50
2022-07-27T14:10:31.548Z,99154.66
2022-07-27T14:12:33.633Z,99149.53
2022-07-27T14:14:35.511Z,99150.59
2022-07-27T14:16:38.876Z,99149.91
2022-07-27T14:18:40.865Z,99149.47
2022-07-27T14:20:42.813Z,99158.72
2022-07-27T14:22:45.023Z,99156.31
2022-07-27T14:24:46.978Z,99150.06
2022-07-27T14:26:48.802Z,99146.19
2022-07-27T14:28:52.468Z,99151.13
2022-07-27T14:30:55.001Z,99147.47
2022-07-27T14:32:56.964Z,99152.66
2022-07-27T14:34:58.765Z,99151.00
2022-07-27T14:37:00.663Z,99148.91
2022-07-27T14:39:02.403Z,99149.81
2022-07-27T14:41:04.774Z,99146.13
2022-07-27T14:43:08.574Z,99144.44
2022-07-27T14:45:12.246Z,99146.78
2022-07-27T14:47:14.489Z,99151.50
2022-07-27T14:49:16.432Z,99154.31
2022-07-27T14:51:18.281Z,99147.69
2022-07-27T14:53:20.275Z,99149.63
2022-07-27T14:55:22.132Z,99140.00
2022-07-27T14:57:24.255Z,99136.38
2022-07-27T14:59:26.030Z,99138.53
2022-07-27T15:01:27.916Z,99144.34
2022-07-27T15:03:29.728Z,99140.28
2022-07-27T15:05:33.256Z,99140.72
2022-07-27T15:07:51.764Z,99140.72
2022-07-27T15:09:53.664Z,99137.69
2022-07-27T15:11:56.575Z,99140.66
2022-07-27T15:13:58.354Z,99148.81
2022-07-27T15:16:00.241Z,99138.09
2022-07-27T15:18:02.133Z,99135.75
2022-07-27T15:20:06.449Z,99128.91
2022-07-27T15:22:08.205Z,99122.72
2022-07-27T15:24:10.007Z,99125.50
2022-07-27T15:26:13.226Z,99121.84
2022-07-27T15:28:15.549Z,99120.38
2022-07-27T15:30:17.330Z,99119.13
2022-07-27T15:32:19.120Z,99115.47
2022-07-27T15:34:21.392Z,99109.03
2022-07-27T15:36:31.848Z,99105.84
2022-07-27T15:38:35.431Z,99102.44
2022-07-27T15:40:37.334Z,99096.66
2022-07-27T15:42:39.130Z,99102.63
2022-07-27T15:44:41.574Z,99099.63
2022-07-27T15:46:43.505Z,99102.63
2022-07-27T15:48:45.729Z,99108.66
2022-07-27T15:50:51.880Z,99096.50
2022-07-27T15:52:53.692Z,99093.53
2022-07-27T15:54:55.936Z,99088.84
2022-07-27T15:56:58.232Z,99088.66
2022-07-27T15:59:00.017Z,99096.16
2022-07-27T16:01:02.428Z,99090.84
2022-07-27T16:03:05.776Z,99087.63
2022-07-27T16:05:08.456Z,99096.84
2022-07-27T16:07:10.357Z,99096.66
2022-07-27T16:09:12.470Z,99093.88
2022-07-27T16:11:15.020Z,99096.88
2022-07-27T16:13:16.858Z,99101.78
2022-07-27T16:15:18.798Z,99106.72
2022-07-27T16:17:20.625Z,99112.50
2022-07-27T16:19:22.510Z,99100.53
2022-07-27T16:21:25.459Z,99106.97
2022-07-27T16:23:27.536Z,99101.22
2022-07-27T16:25:53.314Z,99097.78
2022-07-27T16:27:51.682Z,99106.13
2022-07-27T16:29:53.494Z,99115.38
2022-07-27T16:31:58.322Z,99112.38
2022-07-27T16:34:00.142Z,99107.47
2022-07-27T16:36:02.240Z,99117.72
2022-07-27T16:38:04.632Z,99112.81
2022-07-27T16:40:06.868Z,99123.28
2022-07-27T16:42:08.576Z,99120.50
2022-07-27T16:44:10.426Z,99124.38
2022-07-27T16:46:12.285Z,99130.16
2022-07-27T16:48:14.231Z,99129.09
2022-07-27T16:50:16.488Z,99131.25
2022-07-27T16:52:18.364Z,99136.16
2022-07-27T16:54:20.179Z,99131.25
2022-07-27T16:56:22.083Z,99140.44
2022-07-27T16:58:25.986Z,99147.50
2022-07-27T17:00:27.936Z,99140.47
2022-07-27T17:02:30.644Z,99151.59
2022-07-27T17:04:32.582Z,99153.53
2022-07-27T17:06:35.446Z,99157.81
2022-07-27T17:08:37.341Z,99153.97
2022-07-27T17:10:40.136Z,99155.88
2022-07-27T17:12:42.999Z,99156.94
2022-07-27T17:14:46.196Z,99157.81
2022-07-27T17:16:52.296Z,99162.31
2022-07-27T17:18:54.930Z,99158.69
2022-07-27T17:20:56.899Z,99163.81
2022-07-27T17:22:58.727Z,99162.94
2022-07-27T17:25:00.499Z,99161.47
2022-07-27T17:27:02.500Z,99162.97
2022-07-27T17:29:05.610Z,99165.31
2022-07-27T17:31:12.655Z,99168.28
2022-07-27T17:33:14.605Z,99168.53
2022-07-27T17:35:16.543Z,99171.50
2022-07-27T17:37:18.459Z,99177.50
2022-07-27T17:39:20.246Z,99175.75
2022-07-27T17:41:24.995Z,99177.91
2022-07-27T17:43:27.111Z,99169.75
2022-07-27T17:45:28.991Z,99168.25
2022-07-27T17:47:30.839Z,99170.19
2022-07-27T17:49:32.904Z,99183.66
2022-07-27T17:51:36.223Z,99178.75
2022-07-27T17:53:38.332Z,99171.03
2022-07-27T17:55:40.205Z,99180.66
2022-07-27T17:57:42.099Z,99189.63
2022-07-27T17:59:44.153Z,99183.84
2022-07-27T18:01:48.327Z,99192.59
2022-07-27T18:03:50.606Z,99184.22
2022-07-27T18:05:52.552Z,99181.44
2022-07-27T18:07:54.613Z,99177.75
2022-07-27T18:09:58.324Z,99178.38
2022-07-27T18:12:00.644Z,99180.94
2022-07-27T18:14:02.418Z,99194.81
2022-07-27T18:16:04.461Z,99193.50
2022-07-27T18:18:06.733Z,99199.44
2022-07-27T18:20:10.627Z,99201.31
2022-07-27T18:22:12.338Z,99196.41
2022-07-27T18:24:14.541Z,99205.53
2022-07-27T18:26:16.642Z,99200.78
2022-07-27T18:28:19.056Z,99200.72
2022-07-27T18:30:20.921Z,99209.44
2022-07-27T18:32:22.846Z,99210.25
2022-07-27T18:34:24.631Z,99212.97
2022-07-27T18:36:26.936Z,99216.38
2022-07-27T18:38:28.685Z,99217.38
2022-07-27T18:40:30.480Z,99213.69
2022-07-27T18:42:32.369Z,99212.56
2022-07-27T18:44:38.760Z,99221.88
2022-07-27T18:46:41.673Z,99220.09
2022-07-27T18:48:45.002Z,99221.78
2022-07-27T18:50:47.032Z,99231.34
2022-07-27T18:52:49.037Z,99228.50
2022-07-27T18:54:50.871Z,99238.88
2022-07-27T18:56:52.715Z,99228.38
2022-07-27T18:58:54.838Z,99240.25
2022-07-27T19:00:58.408Z,99247.63
2022-07-27T19:03:00.348Z,99247.34
2022-07-27T19:05:02.429Z,99244.50
2022-07-27T19:07:06.438Z,99243.56
2022-07-27T19:09:08.419Z,99256.28
2022-07-27T19:11:10.517Z,99253.41
2022-07-27T19:13:12.748Z,99253.34
2022-07-27T19:15:14.537Z,99258.41
2022-07-27T19:17:16.808Z,99261.09
2022-07-27T19:19:23.161Z,99256.31
2022-07-27T19:21:26.031Z,99261.75
2022-07-27T19:23:27.866Z,99258.69
2022-07-27T19:25:33.861Z,99257.84
2022-07-27T19:27:38.433Z,99263.28
2022-07-27T19:29:42.665Z,99276.66
2022-07-27T19:31:44.593Z,99279.13
2022-07-27T19:33:46.907Z,99273.09
2022-07-27T19:35:50.687Z,99275.59
2022-07-27T19:37:52.554Z,99272.53
2022-07-27T19:40:02.518Z,99267.75
2022-07-27T19:42:11.530Z,99271.94
2022-07-27T19:44:13.341Z,99276.16
2022-07-27T19:46:15.352Z,99268.88
2022-07-27T19:48:17.879Z,99273.94
2022-07-27T19:50:19.736Z,99269.78
2022-07-27T19:52:21.630Z,99271.41
2022-07-27T19:54:23.595Z,99270.72
2022-07-27T19:56:25.399Z,99270.94
2022-07-27T19:58:27.399Z,99269.88
2022-07-27T20:00:30.215Z,99271.94
2022-07-27T20:02:32.132Z,99273.19
2022-07-27T20:04:37.248Z,99274.41
2022-07-27T20:06:41.589Z,99271.19
2022-07-27T20:08:43.567Z,99266.03
2022-07-27T20:10:47.492Z,99258.09
2022-07-27T20:12:49.416Z,99267.25
2022-07-27T20:14:51.235Z,99262.97
2022-07-27T20:16:53.313Z,99267.97
2022-07-27T20:18:55.197Z,99265.41
2022-07-27T20:20:57.890Z,99268.34
2022-07-27T20:22:59.698Z,99275.50
2022-07-27T20:25:02.372Z,99273.97
2022-07-27T20:27:04.467Z,99268.25
2022-07-27T20:29:06.347Z,99274.81
2022-07-27T20:31:08.287Z,99272.25
2022-07-27T20:33:10.245Z,99267.97
2022-07-27T20:35:12.538Z,99271.75
2022-07-27T20:37:14.539Z,99263.16
2022-07-27T20:39:17.835Z,99272.88
2022-07-27T20:41:19.760Z,99271.47
2022-07-27T20:43:21.601Z,99268.41
2022-07-27T20:45:23.410Z,99271.16
2022-07-27T20:47:27.101Z,99273.75
2022-07-27T20:49:31.655Z,99280.44
2022-07-27T20:51:33.584Z,99291.50
2022-07-27T20:53:35.707Z,99282.91
2022-07-27T20:55:37.859Z,99285.47
2022-07-27T20:57:39.907Z,99281.84
2022-07-27T20:59:41.687Z,99284.19
2022-07-27T21:01:43.852Z,99271.63
2022-07-27T21:03:45.807Z,99278.91
2022-07-27T21:05:47.863Z,99275.69
2022-07-27T21:07:49.655Z,99285.25
2022-07-27T21:09:51.432Z,99282.19
2022-07-27T21:11:57.701Z,99279.41
2022-07-27T21:14:00.536Z,99280.09
2022-07-27T21:16:02.366Z,99286.13
2022-07-27T21:18:04.349Z,99282.47
2022-07-27T21:20:07.452Z,99281.28
2022-07-27T21:22:09.497Z,99275.47
2022-07-27T21:24:18.685Z,99281.16
2022-07-27T21:26:21.002Z,99277.03
2022-07-27T21:28:25.320Z,99283.22
2022-07-27T21:30:27.694Z,99285.28
2022-07-27T21:32:29.629Z,99283.03
2022-07-27T21:34:31.428Z,99287.69
2022-07-27T21:36:33.384Z,99292.88
2022-07-27T21:38:35.665Z,99287.72
2022-07-27T21:40:37.825Z,99283.22
2022-07-27T21:42:39.704Z,99283.41
2022-07-27T21:44:41.699Z,99279.75
2022-07-27T21:46:43.649Z,99286.69
2022-07-27T21:48:45.527Z,99287.88
2022-07-27T21:50:47.867Z,99284.97
2022-07-27T21:52:50.049Z,99284.75
2022-07-27T21:54:52.238Z,99294.78
2022-07-27T21:56:54.051Z,99299.25
2022-07-27T21:58:56.119Z,99298.56
2022-07-27T22:00:58.479Z,99299.63
2022-07-27T22:03:00.320Z,99299.06
2022-07-27T22:05:02.391Z,99309.25
2022-07-27T22:07:05.001Z,99312.22
2022-07-27T22:09:07.544Z,99320.66
2022-07-27T22:11:10.349Z,99324.47
2022-07-27T22:13:12.215Z,99325.31
2022-07-27T22:15:13.991Z,99319.81
2022-07-27T22:17:15.871Z,99326.34
2022-07-27T22:19:18.086Z,99316.50
2022-07-27T22:21:19.915Z,99326.69
2022-07-27T22:23:23.665Z,99322.22
2022-07-27T22:25:25.543Z,99317.22
2022-07-27T22:27:27.632Z,99323.22
2022-07-27T22:29:29.416Z,99331.00
2022-07-27T22:31:31.204Z,99332.31
2022-07-27T22:33:33.068Z,99327.31
2022-07-27T22:35:34.972Z,99333.19
2022-07-27T22:37:37.048Z,99331.63
2022-07-27T22:39:38.766Z,99336.06
2022-07-27T22:41:41.508Z,99333.31
2022-07-27T22:43:43.298Z,99336.41
2022-07-27T22:45:45.294Z,99332.97
2022-07-27T22:47:47.177Z,99332.97
2022-07-27T22:49:49.428Z,99332.25
2022-07-27T22:51:52.912Z,99331.19
2022-07-27T22:53:56.327Z,99333.59
2022-07-27T22:55:58.687Z,99330.31
2022-07-27T22:58:00.475Z,99319.97
2022-07-27T23:00:04.892Z,99323.94
2022-07-27T23:02:06.814Z,99327.69
2022-07-27T23:04:08.789Z,99318.31
2022-07-27T23:06:10.646Z,99316.09
2022-07-27T23:08:12.491Z,99324.66
2022-07-27T23:10:33.048Z,99319.50
2022-07-27T23:12:34.783Z,99316.72
2022-07-27T23:14:36.924Z,99320.81
2022-07-27T23:16:39.190Z,99329.75
2022-07-27T23:18:41.159Z,99331.13
2022-07-27T23:20:43.353Z,99325.53
2022-07-27T23:22:49.404Z,99326.91
2022-07-27T23:24:51.432Z,99330.13
2022-07-27T23:26:53.674Z,99334.09
2022-07-27T23:28:55.931Z,99333.56
2022-07-27T23:30:58.069Z,99334.75
2022-07-27T23:32:59.943Z,99331.75
2022-07-27T23:35:01.833Z,99333.06
2022-07-27T23:37:03.591Z,99331.69
2022-07-27T23:39:05.427Z,99345.75
2022-07-27T23:41:07.268Z,99336.81
2022-07-27T23:43:09.258Z,99343.16
2022-07-27T23:45:11.628Z,99336.09
2022-07-27T23:47:13.678Z,99334.66
2022-07-27T23:49:15.655Z,99337.41
2022-07-27T23:51:18.821Z,99343.25
2022-07-27T23:53:21.402Z,99345.63
2022-07-27T23:55:23.344Z,99344.63
2022-07-27T23:57:25.514Z,99341.47
2022-07-27T23:59:27.356Z,99353.28
